Time;durP1;ratioP1;P1;durP2;ratioP2;P2;SDS_P1;SDS_P2;PMS_P1;PMS_P2;Temp;Humidity;BMP_temperature;BMP_pressure;BME280_temperature;BME280_humidity;BME280_pressure;Samples;Min_cycle;Max_cycle;Signal;HPM_P1;HPM_P2
2022/10/12 00:02:23;;;;;;;14.77;8.37;;;8.20;99.90;;;;;;5021441;28;20462;-85
2022/10/12 00:04:49;;;;;;;13.25;7.80;;;8.20;99.90;;;;;;5020611;28;20422;-84
2022/10/12 00:07:16;;;;;;;16.17;8.93;;;8.30;99.90;;;;;;5017340;28;20610;-85
2022/10/12 00:09:43;;;;;;;12.07;7.57;;;8.40;99.90;;;;;;5019189;28;20462;-85
2022/10/12 00:12:10;;;;;;;15.57;10.50;;;8.40;99.90;;;;;;5018947;28;20450;-84
2022/10/12 00:14:38;;;;;;;20.70;11.30;;;8.50;99.90;;;;;;5021423;28;20453;-85
2022/10/12 00:17:05;;;;;;;17.47;10.53;;;8.50;99.90;;;;;;5021448;28;20958;-85
2022/10/12 00:19:31;;;;;;;15.33;9.13;;;8.70;99.90;;;;;;5020011;28;20443;-84
2022/10/12 00:21:58;;;;;;;12.70;9.07;;;8.50;99.90;;;;;;5020005;28;20488;-85
2022/10/12 00:24:25;;;;;;;12.67;8.73;;;8.50;99.90;;;;;;5020542;28;20422;-86
2022/10/12 00:26:52;;;;;;;17.17;8.63;;;8.00;99.90;;;;;;5021176;28;20855;-86
2022/10/12 00:29:18;;;;;;;16.50;8.90;;;8.30;99.90;;;;;;5022634;28;20486;-84
2022/10/12 00:31:46;;;;;;;19.07;8.50;;;8.30;99.90;;;;;;5019706;28;20442;-84
2022/10/12 00:34:13;;;;;;;16.00;8.03;;;8.10;99.90;;;;;;5022199;28;20418;-84
2022/10/12 00:36:40;;;;;;;17.60;9.03;;;8.00;99.90;;;;;;5035209;28;20405;-84
2022/10/12 00:39:09;;;;;;;14.82;8.82;;;7.90;99.90;;;;;;5039641;28;20406;-84
2022/10/12 00:41:38;;;;;;;10.07;8.13;;;7.80;99.90;;;;;;5038945;28;20223;-85
2022/10/12 00:44:36;;;;;;;11.45;7.55;;;7.70;99.90;;;;;;5034033;28;20474;-84
2022/10/12 00:47:12;;;;;;;13.45;8.10;;;7.70;99.90;;;;;;5031707;28;20203;-85
2022/10/12 00:49:39;;;;;;;13.90;7.97;;;7.70;99.90;;;;;;5034374;28;20698;-85
2022/10/12 00:52:11;;;;;;;11.80;8.05;;;7.70;99.90;;;;;;5033159;28;20501;-84
2022/10/12 00:54:43;;;;;;;13.88;7.40;;;7.70;99.90;;;;;;5034758;28;20242;-83
2022/10/12 00:57:13;;;;;;;12.90;7.07;;;7.50;99.90;;;;;;5034484;28;20558;-84
2022/10/12 00:59:44;;;;;;;14.05;8.32;;;7.50;99.90;;;;;;5027790;28;20459;-85
2022/10/12 01:02:12;;;;;;;15.77;8.40;;;7.50;99.90;;;;;;5027274;28;20230;-85
2022/10/12 01:04:40;;;;;;;10.95;7.18;;;7.40;99.90;;;;;;5026317;28;20620;-85
2022/10/12 01:07:07;;;;;;;13.57;8.23;;;7.50;99.90;;;;;;5025177;28;20217;-85
2022/10/12 01:09:33;;;;;;;13.23;8.45;;;7.80;99.90;;;;;;5022113;28;20228;-85
2022/10/12 01:12:00;;;;;;;13.40;8.18;;;7.50;99.90;;;;;;5019806;28;20207;-84
2022/10/12 01:14:27;;;;;;;10.05;7.70;;;7.50;99.90;;;;;;5020221;28;20257;-87
2022/10/12 01:16:59;;;;;;;14.43;7.78;;;7.50;99.90;;;;;;5020245;28;20217;-86
2022/10/12 01:19:45;;;;;;;14.00;8.27;;;7.80;99.90;;;;;;5019462;28;20193;-85
2022/10/12 01:22:16;;;;;;;10.73;7.95;;;7.50;99.90;;;;;;5019429;28;20242;-85
2022/10/12 01:24:50;;;;;;;11.75;7.78;;;7.50;99.90;;;;;;5019825;28;20188;-85
2022/10/12 01:27:48;;;;;;;18.27;8.75;;;7.50;99.90;;;;;;5019207;28;20199;-85
2022/10/12 01:30:21;;;;;;;12.82;8.95;;;7.50;99.90;;;;;;4977504;28;20237;-85
2022/10/12 01:33:19;;;;;;;13.82;8.05;;;7.50;99.90;;;;;;5011902;28;20342;-86
2022/10/12 01:35:56;;;;;;;12.00;8.60;;;7.60;99.90;;;;;;5018954;28;20230;-85
2022/10/12 01:38:40;;;;;;;12.15;8.15;;;7.70;99.90;;;;;;5019220;28;20222;-85
2022/10/12 01:41:12;;;;;;;16.80;9.02;;;7.70;99.90;;;;;;5018413;28;20224;-86
2022/10/12 01:43:40;;;;;;;15.03;7.43;;;7.70;99.90;;;;;;5018563;28;20219;-85
2022/10/12 01:46:40;;;;;;;15.50;7.15;;;7.70;99.90;;;;;;5018385;28;20456;-85
2022/10/12 01:49:09;;;;;;;12.40;9.18;;;7.60;99.90;;;;;;5019399;28;20235;-85
2022/10/12 01:51:46;;;;;;;11.75;8.98;;;7.70;99.90;;;;;;5019467;28;20298;-85
2022/10/12 01:54:23;;;;;;;12.60;8.07;;;7.70;99.90;;;;;;5022865;28;20189;-85
2022/10/12 01:56:57;;;;;;;14.53;8.00;;;7.60;99.90;;;;;;5022184;28;20410;-85
2022/10/12 01:59:34;;;;;;;13.53;8.00;;;7.40;99.90;;;;;;5022065;28;20406;-86
2022/10/12 02:02:13;;;;;;;13.15;7.78;;;7.40;99.90;;;;;;5022437;28;20426;-86
2022/10/12 02:04:48;;;;;;;11.45;7.88;;;7.40;99.90;;;;;;5022278;28;20189;-85
2022/10/12 02:07:22;;;;;;;13.70;8.30;;;7.50;99.90;;;;;;5021795;28;20569;-85
2022/10/12 02:09:52;;;;;;;12.27;7.75;;;7.50;99.90;;;;;;5021329;28;20232;-85
2022/10/12 02:12:21;;;;;;;7.60;6.88;;;7.50;99.90;;;;;;5021958;28;20200;-85
2022/10/12 02:14:52;;;;;;;16.63;8.20;;;7.40;99.90;;;;;;5021468;28;20204;-85
2022/10/12 02:17:22;;;;;;;11.75;7.55;;;7.40;99.90;;;;;;5024979;28;20219;-85
2022/10/12 02:19:54;;;;;;;13.25;7.45;;;7.20;99.90;;;;;;5022247;28;20640;-85
2022/10/12 02:22:22;;;;;;;12.85;8.20;;;7.20;99.90;;;;;;5021742;28;20192;-85
2022/10/12 02:24:53;;;;;;;10.88;7.47;;;7.20;99.90;;;;;;5027424;28;20246;-85
2022/10/12 02:27:21;;;;;;;13.48;8.07;;;7.20;99.90;;;;;;5025135;28;20196;-84
2022/10/12 02:29:48;;;;;;;14.43;7.47;;;7.40;99.90;;;;;;5019077;28;20228;-84
2022/10/12 02:32:19;;;;;;;9.52;6.97;;;7.20;99.90;;;;;;5019197;28;20192;-85
2022/10/12 02:34:53;;;;;;;8.93;7.43;;;7.20;99.90;;;;;;5020586;28;20195;-85
2022/10/12 02:37:30;;;;;;;11.30;7.38;;;7.20;99.90;;;;;;5020235;28;20282;-85
2022/10/12 02:40:06;;;;;;;12.43;6.90;;;7.20;99.90;;;;;;5021462;28;20246;-85
2022/10/12 02:42:40;;;;;;;11.93;7.40;;;7.20;99.90;;;;;;5020949;28;20191;-85
2022/10/12 02:45:09;;;;;;;17.27;8.32;;;7.20;99.90;;;;;;5023451;28;20195;-85
2022/10/12 02:47:37;;;;;;;10.65;7.82;;;7.10;99.90;;;;;;5024217;28;20211;-85
2022/10/12 02:50:07;;;;;;;11.57;7.47;;;7.20;99.90;;;;;;5021649;28;20231;-85
2022/10/12 02:52:34;;;;;;;8.50;6.22;;;7.20;99.90;;;;;;5021656;28;20251;-85
2022/10/12 02:55:01;;;;;;;18.58;7.30;;;7.20;99.90;;;;;;5021052;28;20211;-85
2022/10/12 02:57:27;;;;;;;13.18;8.35;;;7.10;99.90;;;;;;5020963;28;20211;-85
2022/10/12 02:59:54;;;;;;;9.95;7.03;;;7.10;99.90;;;;;;5020914;28;20253;-85
2022/10/12 03:02:21;;;;;;;10.23;7.13;;;7.20;99.90;;;;;;5029527;28;20204;-85
2022/10/12 03:04:47;;;;;;;12.18;6.45;;;7.20;99.90;;;;;;5022992;28;20206;-84
2022/10/12 03:07:15;;;;;;;13.70;7.25;;;7.20;99.90;;;;;;5019941;28;20281;-84
2022/10/12 03:09:42;;;;;;;12.25;8.00;;;7.10;99.90;;;;;;5020547;28;20329;-84
2022/10/12 03:12:09;;;;;;;10.82;7.30;;;7.00;99.90;;;;;;5020754;28;20212;-85
2022/10/12 03:14:36;;;;;;;15.23;9.35;;;7.00;99.90;;;;;;5020729;28;20274;-84
2022/10/12 03:17:03;;;;;;;12.55;7.10;;;7.00;99.90;;;;;;5020631;28;20214;-85
2022/10/12 03:19:30;;;;;;;11.23;7.38;;;6.90;99.90;;;;;;5020603;28;20198;-85
2022/10/12 03:21:57;;;;;;;10.63;7.10;;;7.00;99.90;;;;;;5020574;28;20206;-85
2022/10/12 03:24:25;;;;;;;9.88;6.38;;;6.90;99.90;;;;;;5020584;28;20203;-85
2022/10/12 03:26:51;;;;;;;10.23;7.43;;;6.90;99.90;;;;;;5020560;28;20207;-85
2022/10/12 03:29:18;;;;;;;15.48;8.10;;;7.10;99.90;;;;;;5020067;28;20211;-84
2022/10/12 03:31:45;;;;;;;10.85;6.30;;;7.00;99.90;;;;;;5039776;22;20718;-83
2022/10/12 03:34:11;;;;;;;11.40;7.43;;;7.00;99.90;;;;;;5025355;28;20211;-83
2022/10/12 03:36:38;;;;;;;22.52;7.88;;;7.00;99.90;;;;;;5026218;28;20242;-82
2022/10/12 03:39:05;;;;;;;9.90;7.15;;;7.00;99.90;;;;;;5025596;28;20207;-83
2022/10/12 03:41:33;;;;;;;10.75;7.05;;;7.00;99.90;;;;;;5025918;28;20285;-82
2022/10/12 03:44:00;;;;;;;10.70;7.32;;;6.90;99.90;;;;;;5024824;28;20267;-82
2022/10/12 03:46:26;;;;;;;12.60;6.78;;;6.80;99.90;;;;;;5024582;28;20302;-82
2022/10/12 03:48:53;;;;;;;9.75;6.60;;;6.80;99.90;;;;;;5025369;28;20238;-82
2022/10/12 03:51:20;;;;;;;12.43;7.20;;;6.80;99.90;;;;;;5024485;28;20239;-82
2022/10/12 03:53:46;;;;;;;11.85;8.10;;;6.80;99.90;;;;;;5023902;28;20202;-82
2022/10/12 03:56:13;;;;;;;13.30;7.32;;;6.80;99.90;;;;;;5022654;28;20207;-82
2022/10/12 03:58:41;;;;;;;14.02;7.53;;;6.80;99.90;;;;;;5022522;28;20339;-82
2022/10/12 04:01:08;;;;;;;7.90;6.35;;;6.70;99.90;;;;;;5023301;28;20319;-82
2022/10/12 04:03:35;;;;;;;10.48;6.95;;;6.70;99.90;;;;;;5023461;28;20215;-82
2022/10/12 04:06:02;;;;;;;14.23;6.93;;;6.70;99.90;;;;;;5025857;28;20207;-83
2022/10/12 04:08:29;;;;;;;14.18;7.47;;;6.70;99.90;;;;;;5034145;28;20217;-82
2022/10/12 04:10:56;;;;;;;10.05;7.15;;;6.70;99.90;;;;;;5033525;28;20231;-82
2022/10/12 04:13:23;;;;;;;10.55;7.45;;;6.80;99.90;;;;;;5032385;28;20658;-82
2022/10/12 04:15:51;;;;;;;13.15;6.38;;;6.70;99.90;;;;;;5029749;28;20207;-82
2022/10/12 04:18:17;;;;;;;10.10;7.10;;;6.60;99.90;;;;;;5029259;28;20211;-83
2022/10/12 04:20:47;;;;;;;10.35;6.30;;;6.60;99.90;;;;;;5029289;28;20227;-83
2022/10/12 04:23:14;;;;;;;16.20;7.47;;;6.50;99.90;;;;;;5028470;28;20200;-84
2022/10/12 04:25:41;;;;;;;9.30;6.80;;;6.50;99.90;;;;;;5024793;28;20218;-83
2022/10/12 04:28:07;;;;;;;14.82;6.82;;;6.50;99.90;;;;;;5025736;28;20207;-83
2022/10/12 04:30:34;;;;;;;8.48;6.55;;;6.40;99.90;;;;;;5023267;28;20242;-81
2022/10/12 04:33:02;;;;;;;12.55;6.45;;;6.40;99.90;;;;;;5024412;28;20240;-83
2022/10/12 04:35:29;;;;;;;14.50;7.10;;;6.50;99.90;;;;;;5030540;28;20298;-82
2022/10/12 04:37:56;;;;;;;16.98;7.63;;;6.50;99.90;;;;;;5033057;28;20246;-82
2022/10/12 04:40:23;;;;;;;13.23;6.70;;;6.40;99.90;;;;;;5032604;28;20233;-83
2022/10/12 04:42:50;;;;;;;17.90;7.53;;;6.40;99.90;;;;;;5033113;28;20202;-82
2022/10/12 04:45:16;;;;;;;16.77;7.43;;;6.40;99.90;;;;;;5033284;28;20210;-82
2022/10/12 04:47:43;;;;;;;11.63;7.10;;;6.40;99.90;;;;;;5032827;28;20214;-82
2022/10/12 04:50:11;;;;;;;18.20;8.77;;;6.50;99.90;;;;;;5029795;28;20236;-82
2022/10/12 04:52:38;;;;;;;8.68;6.65;;;6.50;99.90;;;;;;5024350;28;20206;-82
2022/10/12 04:55:05;;;;;;;10.43;7.72;;;6.50;99.90;;;;;;5023429;28;20273;-82
2022/10/12 04:57:32;;;;;;;10.73;7.18;;;6.50;99.90;;;;;;5022149;28;20442;-82
2022/10/12 04:59:59;;;;;;;10.43;6.65;;;6.40;99.90;;;;;;5022654;28;20222;-82
2022/10/12 05:02:25;;;;;;;9.53;6.80;;;6.70;99.90;;;;;;5021485;28;20533;-82
2022/10/12 05:04:52;;;;;;;12.43;7.45;;;6.40;99.90;;;;;;5022456;28;20481;-83
2022/10/12 05:07:20;;;;;;;7.53;6.00;;;6.40;99.90;;;;;;5022560;28;20207;-82
2022/10/12 05:09:47;;;;;;;12.55;7.60;;;6.50;99.90;;;;;;5030957;28;20218;-82
2022/10/12 05:12:13;;;;;;;8.73;6.90;;;6.50;99.90;;;;;;5032277;28;20192;-83
2022/10/12 05:14:43;;;;;;;8.57;7.10;;;6.50;99.90;;;;;;5031352;28;20210;-83
2022/10/12 05:17:09;;;;;;;13.73;7.63;;;6.50;99.90;;;;;;5023427;28;20223;-82
2022/10/12 05:19:36;;;;;;;10.77;6.95;;;6.50;99.90;;;;;;5021874;28;20675;-82
2022/10/12 05:22:03;;;;;;;9.85;5.82;;;6.50;99.90;;;;;;5022324;28;20200;-82
2022/10/12 05:24:31;;;;;;;10.18;6.10;;;6.40;99.90;;;;;;5022272;28;20211;-83
2022/10/12 05:26:57;;;;;;;7.93;7.07;;;6.30;99.90;;;;;;5022141;28;20207;-82
2022/10/12 05:29:24;;;;;;;13.70;7.50;;;6.30;99.90;;;;;;5023363;28;20674;-82
2022/10/12 05:31:51;;;;;;;10.23;7.63;;;6.30;99.90;;;;;;5023554;28;20237;-83
2022/10/12 05:34:17;;;;;;;8.65;6.15;;;6.40;99.90;;;;;;5033096;28;20207;-83
2022/10/12 05:36:44;;;;;;;11.15;6.63;;;6.30;99.90;;;;;;5036948;28;20232;-82
2022/10/12 05:39:11;;;;;;;9.90;6.05;;;6.30;99.90;;;;;;5037677;28;20202;-82
2022/10/12 05:41:39;;;;;;;11.50;7.18;;;6.30;99.90;;;;;;5026321;28;20222;-84
2022/10/12 05:44:06;;;;;;;21.73;8.82;;;6.30;99.90;;;;;;5023610;28;20255;-83
2022/10/12 05:46:33;;;;;;;12.75;6.55;;;6.40;99.90;;;;;;5022589;28;20212;-83
2022/10/12 05:49:00;;;;;;;17.98;7.47;;;6.40;99.90;;;;;;5022572;28;20231;-83
2022/10/12 05:51:26;;;;;;;12.75;7.10;;;6.50;99.90;;;;;;5023274;28;20222;-83
2022/10/12 05:53:53;;;;;;;13.93;8.13;;;6.50;99.90;;;;;;5025090;28;20296;-83
2022/10/12 05:56:20;;;;;;;19.90;8.70;;;6.40;99.90;;;;;;5023205;28;20212;-83
2022/10/12 05:58:48;;;;;;;15.15;8.75;;;6.40;99.90;;;;;;5024542;28;20262;-82
2022/10/12 06:01:15;;;;;;;12.23;8.75;;;6.50;99.90;;;;;;5023145;28;20225;-83
2022/10/12 06:03:42;;;;;;;17.75;9.93;;;6.40;99.90;;;;;;5023960;28;20233;-84
2022/10/12 06:06:09;;;;;;;17.13;10.85;;;6.40;99.90;;;;;;5024296;28;20213;-84
2022/10/12 06:08:36;;;;;;;19.73;11.18;;;6.40;99.90;;;;;;5025388;28;20662;-84
2022/10/12 06:11:12;;;;;;;15.60;11.10;;;6.40;99.90;;;;;;5025140;28;20239;-84
2022/10/12 06:13:39;;;;;;;15.45;11.55;;;6.40;99.90;;;;;;5023760;28;20205;-83
2022/10/12 06:16:07;;;;;;;17.95;10.77;;;6.40;99.90;;;;;;5023329;28;20204;-82
2022/10/12 06:18:34;;;;;;;20.70;11.15;;;6.60;99.90;;;;;;5022855;28;20205;-83
2022/10/12 06:21:01;;;;;;;18.55;10.10;;;6.60;99.90;;;;;;5023854;28;20262;-83
2022/10/12 06:23:28;;;;;;;15.60;10.82;;;6.60;99.90;;;;;;5023038;28;20208;-83
2022/10/12 06:25:54;;;;;;;11.60;9.52;;;6.70;99.90;;;;;;5021856;28;20199;-83
2022/10/12 06:28:21;;;;;;;16.98;10.93;;;6.70;99.90;;;;;;5021516;28;20202;-83
2022/10/12 06:30:53;;;;;;;20.42;11.52;;;6.70;99.90;;;;;;5020985;28;20234;-84
2022/10/12 06:33:21;;;;;;;27.77;9.85;;;6.70;99.90;;;;;;5018259;28;20639;-84
2022/10/12 06:35:48;;;;;;;13.00;9.50;;;6.80;99.90;;;;;;5018720;28;20211;-83
2022/10/12 06:38:15;;;;;;;12.30;8.48;;;6.80;99.90;;;;;;5022130;28;20248;-83
2022/10/12 06:40:42;;;;;;;23.55;10.48;;;6.90;99.90;;;;;;5029479;28;20235;-83
2022/10/12 06:43:09;;;;;;;14.70;9.05;;;6.90;99.90;;;;;;5032484;28;20210;-83
2022/10/12 06:45:36;;;;;;;12.52;9.30;;;7.10;99.90;;;;;;5033177;28;20210;-83
2022/10/12 06:48:04;;;;;;;20.83;9.32;;;7.10;99.90;;;;;;5033544;28;20208;-83
2022/10/12 06:50:32;;;;;;;11.48;9.25;;;7.20;99.90;;;;;;5027941;28;20231;-82
2022/10/12 06:52:58;;;;;;;14.52;8.50;;;7.30;99.90;;;;;;5027249;28;20213;-82
2022/10/12 06:55:25;;;;;;;20.10;9.05;;;7.30;99.90;;;;;;5027150;28;20207;-82
2022/10/12 06:57:52;;;;;;;12.35;7.68;;;8.20;99.90;;;;;;5026517;28;20222;-82
2022/10/12 07:00:19;;;;;;;16.70;9.73;;;7.50;99.90;;;;;;5026215;28;20239;-82
2022/10/12 07:02:48;;;;;;;18.40;9.10;;;7.60;99.90;;;;;;5027667;28;20204;-83
2022/10/12 07:05:15;;;;;;;23.33;13.45;;;7.80;99.90;;;;;;5025165;28;20453;-83
2022/10/12 07:07:43;;;;;;;15.20;9.55;;;7.70;99.90;;;;;;5024806;28;20497;-83
2022/10/12 07:10:10;;;;;;;19.40;9.85;;;7.70;99.90;;;;;;5025826;28;20235;-84
2022/10/12 07:12:37;;;;;;;15.18;10.05;;;7.80;99.90;;;;;;5034039;28;20255;-83
2022/10/12 07:15:05;;;;;;;15.57;10.30;;;7.90;99.90;;;;;;5028358;28;20204;-83
2022/10/12 07:17:32;;;;;;;15.73;8.90;;;8.00;99.90;;;;;;5026596;28;20210;-83
2022/10/12 07:19:59;;;;;;;17.20;10.27;;;8.00;99.90;;;;;;5025142;28;20466;-82
2022/10/12 07:22:27;;;;;;;14.10;8.52;;;8.10;99.90;;;;;;5025002;28;20422;-84
2022/10/12 07:24:55;;;;;;;12.10;9.10;;;8.20;99.90;;;;;;5028043;28;20212;-83
2022/10/12 07:27:22;;;;;;;22.20;10.43;;;8.30;99.90;;;;;;5031366;28;20507;-83
2022/10/12 07:29:48;;;;;;;21.85;9.65;;;7.90;99.90;;;;;;5030381;28;20452;-83
2022/10/12 07:32:15;;;;;;;11.97;7.90;;;8.50;99.90;;;;;;5028783;28;20228;-85
2022/10/12 07:34:43;;;;;;;15.00;8.40;;;8.50;99.90;;;;;;5026649;28;20455;-84
2022/10/12 07:37:10;;;;;;;18.43;11.03;;;8.70;99.90;;;;;;5024607;28;20426;-83
2022/10/12 07:39:41;;;;;;;14.83;8.50;;;8.80;99.90;;;;;;5024834;28;20433;-83
2022/10/12 07:42:10;;;;;;;16.27;8.13;;;8.80;99.90;;;;;;5027505;28;20459;-84
2022/10/12 07:44:36;;;;;;;15.27;7.77;;;8.90;99.90;;;;;;5030917;28;20421;-85
2022/10/12 07:47:03;;;;;;;14.73;7.63;;;9.00;99.90;;;;;;5032646;28;20437;-85
2022/10/12 07:49:30;;;;;;;18.33;8.43;;;9.10;99.90;;;;;;5033347;28;20444;-84
2022/10/12 07:51:56;;;;;;;13.37;8.33;;;9.10;99.90;;;;;;5035471;28;20495;-85
2022/10/12 07:54:24;;;;;;;12.33;8.87;;;9.20;52.60;;;;;;5028145;28;20406;-83
2022/10/12 07:56:50;;;;;;;15.93;8.70;;;9.30;27.20;;;;;;5027632;28;20418;-84
2022/10/12 07:59:18;;;;;;;15.73;9.17;;;9.40;1.00;;;;;;5031673;28;20443;-84
2022/10/12 08:01:45;;;;;;;11.40;7.70;;;9.60;1.00;;;;;;5030320;28;20464;-84
2022/10/12 08:04:12;;;;;;;15.43;8.57;;;9.50;1.00;;;;;;5026877;28;20449;-84
2022/10/12 08:06:43;;;;;;;14.63;8.93;;;9.60;1.00;;;;;;5026432;28;20961;-84
2022/10/12 08:09:10;;;;;;;16.30;8.60;;;10.30;1.00;;;;;;5026138;28;20438;-84
2022/10/12 08:11:39;;;;;;;10.90;6.83;;;10.20;1.00;;;;;;5026449;28;20462;-84
2022/10/12 08:14:06;;;;;;;19.40;8.20;;;10.00;99.90;;;;;;5025257;28;20433;-84
2022/10/12 08:16:34;;;;;;;10.60;8.20;;;9.80;99.90;;;;;;5033678;28;20470;-84
2022/10/12 08:19:00;;;;;;;8.70;7.40;;;9.90;99.90;;;;;;5034955;28;20448;-84
2022/10/12 08:21:27;;;;;;;22.63;9.60;;;10.00;94.80;;;;;;5034579;28;20471;-83
2022/10/12 08:23:54;;;;;;;17.47;8.73;;;10.10;1.00;;;;;;5033950;28;20490;-83
2022/10/12 08:26:21;;;;;;;14.13;8.37;;;10.10;99.90;;;;;;5034930;28;20804;-83
2022/10/12 08:28:47;;;;;;;16.38;8.75;;;10.20;66.70;;;;;;5031173;28;20422;-83
2022/10/12 08:31:16;;;;;;;12.50;8.67;;;10.40;1.00;;;;;;5025717;28;20236;-83
2022/10/12 08:33:44;;;;;;;19.47;8.70;;;9.90;99.90;;;;;;5024565;28;20481;-83
2022/10/12 08:36:11;;;;;;;17.10;7.67;;;10.40;99.90;;;;;;5024726;28;20426;-83
2022/10/12 08:38:39;;;;;;;12.67;8.10;;;10.50;1.00;;;;;;5024877;28;20448;-84
2022/10/12 08:41:19;;;;;;;10.97;6.53;;;10.60;99.90;;;;;;5024047;28;20456;-83
2022/10/12 08:43:59;;;;;;;10.73;5.80;;;11.10;1.00;;;;;;5024219;28;20460;-83
2022/10/12 08:46:27;;;;;;;7.50;6.10;;;10.80;99.90;;;;;;5023515;28;20454;-84
2022/10/12 08:49:01;;;;;;;16.20;6.87;;;10.80;99.90;;;;;;5023615;28;20445;-83
2022/10/12 08:51:31;;;;;;;11.15;6.75;;;11.00;99.90;;;;;;5023333;28;20451;-83
2022/10/12 08:54:03;;;;;;;11.70;7.95;;;11.00;99.90;;;;;;5024271;28;20353;-84
2022/10/12 08:56:30;;;;;;;10.85;6.80;;;11.40;99.90;;;;;;5022550;28;20508;-83
2022/10/12 08:58:57;;;;;;;13.40;8.20;;;11.10;99.90;;;;;;5024338;28;20215;-84
2022/10/12 09:01:32;;;;;;;12.70;7.53;;;11.20;1.00;;;;;;5024210;28;20474;-83
2022/10/12 09:04:11;;;;;;;18.37;7.47;;;11.30;99.90;;;;;;5025295;28;20798;-83
2022/10/12 09:06:45;;;;;;;12.60;6.87;;;11.30;1.00;;;;;;5028006;28;20436;-83
2022/10/12 09:09:27;;;;;;;12.63;5.93;;;11.30;99.90;;;;;;5027035;28;20937;-84
2022/10/12 09:12:07;;;;;;;10.60;6.97;;;11.40;99.90;;;;;;5026060;28;20545;-84
2022/10/12 09:14:37;;;;;;;13.60;7.30;;;11.50;99.90;;;;;;5028237;28;20439;-83
2022/10/12 09:17:17;;;;;;;8.77;7.30;;;11.60;99.90;;;;;;5029094;28;20193;-83
2022/10/12 09:19:45;;;;;;;14.03;6.73;;;11.70;1.00;;;;;;5028450;28;20462;-83
2022/10/12 09:22:19;;;;;;;10.63;6.23;;;11.70;99.90;;;;;;5027097;28;20455;-84
2022/10/12 09:24:49;;;;;;;10.27;5.05;;;12.10;99.90;;;;;;5024054;28;20927;-84
2022/10/12 09:27:19;;;;;;;10.50;6.37;;;11.80;1.00;;;;;;5030583;28;20216;-84
2022/10/12 09:29:48;;;;;;;12.00;6.63;;;12.10;99.90;;;;;;5034759;28;20436;-84
2022/10/12 09:32:43;;;;;;;14.07;4.90;;;12.10;1.00;;;;;;5043568;22;20517;-80
2022/10/12 09:35:14;;;;;;;10.17;4.90;;;12.20;1.00;;;;;;5022047;28;20444;-80
2022/10/12 09:37:41;;;;;;;9.93;5.50;;;12.10;99.90;;;;;;5021426;28;20835;-80
2022/10/12 09:40:17;;;;;;;8.50;4.97;;;12.40;1.00;;;;;;5020588;28;20458;-79
2022/10/12 09:42:46;;;;;;;8.60;3.37;;;12.20;99.90;;;;;;5021328;28;20461;-80
2022/10/12 09:45:17;;;;;;;16.20;4.67;;;12.30;37.10;;;;;;5021522;28;20436;-81
2022/10/12 09:48:15;;;;;;;7.47;3.60;;;12.20;90.00;;;;;;5027613;28;20508;-81
2022/10/12 09:50:48;;;;;;;6.90;2.57;;;12.50;1.00;;;;;;5028580;28;20463;-81
2022/10/12 09:53:27;;;;;;;9.67;4.90;;;12.50;99.90;;;;;;5030488;28;20487;-81
2022/10/12 09:55:59;;;;;;;10.20;6.57;;;12.60;99.90;;;;;;5029809;28;20471;-82
2022/10/12 09:58:28;;;;;;;21.50;5.30;;;12.70;99.90;;;;;;5023572;28;20502;-81
2022/10/12 10:01:17;;;;;;;5.40;3.67;;;12.80;1.00;;;;;;5022007;28;20442;-81
2022/10/12 10:03:45;;;;;;;8.43;3.50;;;12.80;99.90;;;;;;5022381;28;20495;-81
2022/10/12 10:06:14;;;;;;;11.20;5.40;;;12.90;99.90;;;;;;5019105;28;20814;-81
2022/10/12 10:08:43;;;;;;;3.77;3.40;;;13.00;99.90;;;;;;5017705;28;20477;-82
2022/10/12 10:11:21;;;;;;;11.50;5.37;;;13.00;99.90;;;;;;5016544;28;20524;-81
2022/10/12 10:13:50;;;;;;;7.43;3.93;;;13.00;99.90;;;;;;5024494;28;20438;-82
2022/10/12 10:16:19;;;;;;;7.63;2.77;;;13.10;99.90;;;;;;5030269;28;20437;-82
2022/10/12 10:18:49;;;;;;;21.47;5.50;;;13.10;99.90;;;;;;5033338;28;20451;-82
2022/10/12 10:21:26;;;;;;;14.97;2.77;;;13.20;99.90;;;;;;5021133;28;20446;-82
2022/10/12 10:23:55;;;;;;;6.77;3.10;;;13.30;42.50;;;;;;5020987;28;20431;-81
2022/10/12 10:26:24;;;;;;;9.40;3.67;;;13.40;99.90;;;;;;5020550;28;20466;-82
2022/10/12 10:28:56;;;;;;;5.77;2.63;;;13.40;37.50;;;;;;5020553;28;20455;-82
2022/10/12 10:31:26;;;;;;;3.70;2.37;;;13.50;97.30;;;;;;5020689;28;20550;-82
2022/10/12 10:34:12;;;;;;;4.50;3.20;;;13.40;1.00;;;;;;5021868;28;20462;-81
2022/10/12 10:36:45;;;;;;;6.70;3.30;;;13.50;1.00;;;;;;5026430;28;20446;-80
2022/10/12 10:39:20;;;;;;;15.87;9.43;;;13.60;11.70;;;;;;5031862;28;20432;-82
2022/10/12 10:41:47;;;;;;;8.93;3.43;;;13.60;1.00;;;;;;5029709;28;20507;-82
2022/10/12 10:44:36;;;;;;;5.67;2.67;;;13.60;1.00;;;;;;5023136;28;20462;-82
2022/10/12 10:47:09;;;;;;;8.60;2.60;;;13.90;99.90;;;;;;5019393;28;20462;-81
2022/10/12 10:49:40;;;;;;;5.77;2.67;;;13.60;1.00;;;;;;5021851;28;20534;-81
2022/10/12 10:52:21;;;;;;;8.30;3.53;;;13.70;1.00;;;;;;5022794;28;20540;-81
2022/10/12 10:54:48;;;;;;;10.47;4.67;;;13.80;1.00;;;;;;5032728;28;20451;-80
2022/10/12 10:57:20;;;;;;;7.07;3.30;;;13.80;1.00;;;;;;5031864;28;20447;-82
2022/10/12 10:59:51;;;;;;;7.03;2.63;;;13.40;1.00;;;;;;5034721;28;20438;-82
2022/10/12 11:02:31;;;;;;;9.20;2.70;;;13.90;1.00;;;;;;5033801;28;20467;-82
2022/10/12 11:05:05;;;;;;;6.83;2.00;;;13.90;1.00;;;;;;5027966;28;20389;-82
2022/10/12 11:07:40;;;;;;;5.10;2.03;;;14.00;1.00;;;;;;5029044;28;20431;-82
2022/10/12 11:10:20;;;;;;;3.63;2.07;;;13.90;99.90;;;;;;5026791;28;20447;-82
2022/10/12 11:12:52;;;;;;;3.03;2.00;;;14.10;1.00;;;;;;5024793;28;20558;-82
2022/10/12 11:15:24;;;;;;;5.73;2.50;;;14.20;1.00;;;;;;5023971;28;20435;-82
2022/10/12 11:17:58;;;;;;;12.90;2.37;;;14.30;1.00;;;;;;5025196;28;20455;-82
2022/10/12 11:20:39;;;;;;;7.33;3.77;;;14.50;99.90;;;;;;5022023;28;20436;-82
2022/10/12 11:23:17;;;;;;;8.73;4.50;;;14.30;1.00;;;;;;5018728;28;20968;-82
2022/10/12 11:25:55;;;;;;;4.17;2.10;;;14.30;1.00;;;;;;5018230;28;20439;-82
2022/10/12 11:28:26;;;;;;;4.30;2.07;;;13.50;1.00;;;;;;5018405;28;20466;-82
2022/10/12 11:30:52;;;;;;;10.43;3.00;;;14.40;1.00;;;;;;5019920;28;20475;-82
2022/10/12 11:33:25;;;;;;;7.40;3.07;;;14.50;1.00;;;;;;5020109;28;20487;-83
2022/10/12 11:35:52;;;;;;;6.80;2.90;;;14.60;1.00;;;;;;5020285;28;20447;-82
2022/10/12 11:38:25;;;;;;;5.57;3.90;;;14.60;1.00;;;;;;5019497;28;20435;-82
2022/10/12 11:40:57;;;;;;;8.13;2.40;;;14.90;99.90;;;;;;5018317;28;20994;-82
2022/10/12 11:43:29;;;;;;;7.07;2.47;;;14.70;1.00;;;;;;5019371;28;20496;-82
2022/10/12 11:46:01;;;;;;;4.03;1.97;;;14.70;1.00;;;;;;5017428;28;20841;-82
2022/10/12 11:48:35;;;;;;;8.77;2.30;;;14.60;1.00;;;;;;5021241;28;20428;-81
2022/10/12 11:51:02;;;;;;;7.20;2.73;;;14.60;1.00;;;;;;5029183;28;20510;-80
2022/10/12 11:53:40;;;;;;;7.27;2.50;;;14.60;1.00;;;;;;5019856;28;20480;-81
2022/10/12 11:56:12;;;;;;;3.13;2.33;;;14.60;1.00;;;;;;5019335;28;20432;-81
2022/10/12 11:58:42;;;;;;;2.60;2.40;;;14.70;1.00;;;;;;5019230;28;20442;-81
2022/10/12 12:01:28;;;;;;;17.50;6.43;;;14.80;1.00;;;;;;5019484;28;20978;-81
2022/10/12 12:04:23;;;;;;;5.63;3.03;;;14.80;1.00;;;;;;5018711;28;20462;-81
2022/10/12 12:06:58;;;;;;;3.77;1.53;;;14.70;86.40;;;;;;5029518;28;20439;-81
2022/10/12 12:09:44;;;;;;;4.07;1.63;;;14.80;1.00;;;;;;5033937;28;20429;-82
2022/10/12 12:12:17;;;;;;;5.47;3.00;;;14.90;1.00;;;;;;5033982;28;20510;-80
2022/10/12 12:15:07;;;;;;;7.60;4.10;;;15.00;1.00;;;;;;5024587;28;20515;-82
2022/10/12 12:17:34;;;;;;;12.07;3.30;;;15.00;1.00;;;;;;5020405;28;20432;-82
2022/10/12 12:20:03;;;;;;;13.97;3.17;;;15.10;1.00;;;;;;5022686;28;20443;-81
2022/10/12 12:22:53;;;;;;;6.67;2.97;;;15.00;1.00;;;;;;5031643;28;20531;-81
2022/10/12 12:25:29;;;;;;;9.90;2.10;;;15.00;1.00;;;;;;5028673;28;20428;-81
2022/10/12 12:27:59;;;;;;;6.27;2.70;;;15.00;1.00;;;;;;5026503;28;20458;-82
2022/10/12 12:30:36;;;;;;;4.03;2.10;;;14.90;99.90;;;;;;5025090;28;20458;-81
2022/10/12 12:33:27;;;;;;;5.47;2.23;;;15.00;1.00;;;;;;5022411;28;20513;-82
2022/10/12 12:35:58;;;;;;;3.90;2.43;;;14.90;1.00;;;;;;5026220;28;20456;-83
2022/10/12 12:38:29;;;;;;;6.83;2.23;;;15.00;1.00;;;;;;5019270;28;20439;-81
2022/10/12 12:41:13;;;;;;;5.07;2.23;;;15.00;1.00;;;;;;5017593;28;20458;-80
2022/10/12 12:44:02;;;;;;;9.90;2.40;;;15.10;1.00;;;;;;5017554;28;20455;-81
2022/10/12 12:47:05;;;;;;;4.10;1.90;;;15.10;1.00;;;;;;5019244;28;20428;-81
2022/10/12 12:49:40;;;;;;;3.73;1.90;;;15.10;1.00;;;;;;5017604;28;20435;-82
2022/10/12 12:52:13;;;;;;;7.47;1.87;;;15.10;1.00;;;;;;5018132;28;20880;-82
2022/10/12 12:54:55;;;;;;;4.50;1.60;;;15.10;1.00;;;;;;5017852;28;20467;-82
2022/10/12 12:57:55;;;;;;;6.23;2.20;;;15.00;1.00;;;;;;5018943;28;20512;-82
2022/10/12 13:00:23;;;;;;;4.80;2.00;;;15.10;99.90;;;;;;5018526;28;20772;-82
2022/10/12 13:03:27;;;;;;;8.97;1.90;;;15.00;1.00;;;;;;5018402;28;20493;-82
2022/10/12 13:06:33;;;;;;;4.53;1.70;;;15.00;1.00;;;;;;5017743;28;20432;-82
2022/10/12 13:09:31;;;;;;;4.47;2.33;;;15.00;1.00;;;;;;5018642;28;20443;-82